sensor_id;sensor_type;location;lat;lon;timestamp;temperature;humidity
67163;DHT22;54092;53.088;8.850;2023-05-10T00:01:03;16.20;99.90
67163;DHT22;54092;53.088;8.850;2023-05-10T00:03:29;16.20;99.90
67163;DHT22;54092;53.088;8.850;2023-05-10T00:05:54;16.20;99.90
67163;DHT22;54092;53.088;8.850;2023-05-10T00:08:20;16.20;99.90
67163;DHT22;54092;53.088;8.850;2023-05-10T00:10:45;16.20;99.90
67163;DHT22;54092;53.088;8.850;2023-05-10T00:13:11;16.20;99.90
67163;DHT22;54092;53.088;8.850;2023-05-10T00:15:36;16.10;99.90
67163;DHT22;54092;53.088;8.850;2023-05-10T00:18:02;16.10;99.90
67163;DHT22;54092;53.088;8.850;2023-05-10T00:20:27;16.10;99.90
67163;DHT22;54092;53.088;8.850;2023-05-10T00:22:53;16.10;99.90
67163;DHT22;54092;53.088;8.850;2023-05-10T00:25:18;16.10;99.90
67163;DHT22;54092;53.088;8.850;2023-05-10T00:27:44;16.00;99.90
67163;DHT22;54092;53.088;8.850;2023-05-10T00:30:10;16.00;99.90
67163;DHT22;54092;53.088;8.850;2023-05-10T00:32:35;16.00;99.90
67163;DHT22;54092;53.088;8.850;2023-05-10T00:35:01;16.00;99.90
67163;DHT22;54092;53.088;8.850;2023-05-10T00:37:26;15.90;99.90
67163;DHT22;54092;53.088;8.850;2023-05-10T00:39:52;16.00;99.90
67163;DHT22;54092;53.088;8.850;2023-05-10T00:42:17;16.00;99.90
67163;DHT22;54092;53.088;8.850;2023-05-10T00:44:42;16.00;99.90
67163;DHT22;54092;53.088;8.850;2023-05-10T00:47:08;16.00;99.90
67163;DHT22;54092;53.088;8.850;2023-05-10T00:49:35;15.90;99.90
67163;DHT22;54092;53.088;8.850;2023-05-10T00:52:01;15.90;99.90
67163;DHT22;54092;53.088;8.850;2023-05-10T00:54:27;15.90;99.90
67163;DHT22;54092;53.088;8.850;2023-05-10T00:56:52;15.80;99.90
67163;DHT22;54092;53.088;8.850;2023-05-10T00:59:18;15.80;99.90
67163;DHT22;54092;53.088;8.850;2023-05-10T01:01:45;15.70;99.90
67163;DHT22;54092;53.088;8.850;2023-05-10T01:04:12;15.80;99.90
67163;DHT22;54092;53.088;8.850;2023-05-10T01:06:41;15.70;99.90
67163;DHT22;54092;53.088;8.850;2023-05-10T01:09:07;15.70;99.90
67163;DHT22;54092;53.088;8.850;2023-05-10T01:11:35;15.60;99.90
67163;DHT22;54092;53.088;8.850;2023-05-10T01:14:02;15.50;99.90
67163;DHT22;54092;53.088;8.850;2023-05-10T01:16:32;15.60;99.90
67163;DHT22;54092;53.088;8.850;2023-05-10T01:19:00;15.50;99.90
67163;DHT22;54092;53.088;8.850;2023-05-10T01:22:25;15.50;99.90
67163;DHT22;54092;53.088;8.850;2023-05-10T01:24:39;15.50;99.90
67163;DHT22;54092;53.088;8.850;2023-05-10T01:28:06;15.50;99.90
67163;DHT22;54092;53.088;8.850;2023-05-10T01:36:31;15.40;99.90
67163;DHT22;54092;53.088;8.850;2023-05-10T01:39:15;15.40;99.90
67163;DHT22;54092;53.088;8.850;2023-05-10T01:42:07;15.40;99.90
67163;DHT22;54092;53.088;8.850;2023-05-10T01:47:11;15.40;99.90
67163;DHT22;54092;53.088;8.850;2023-05-10T01:49:42;15.30;99.90
67163;DHT22;54092;53.088;8.850;2023-05-10T01:52:11;15.30;99.90
67163;DHT22;54092;53.088;8.850;2023-05-10T01:54:44;15.30;99.90
67163;DHT22;54092;53.088;8.850;2023-05-10T01:57:15;15.30;99.90
67163;DHT22;54092;53.088;8.850;2023-05-10T01:59:43;15.20;99.90
67163;DHT22;54092;53.088;8.850;2023-05-10T02:02:11;15.20;99.90
67163;DHT22;54092;53.088;8.850;2023-05-10T02:04:38;15.20;99.90
67163;DHT22;54092;53.088;8.850;2023-05-10T02:07:05;15.20;99.90
67163;DHT22;54092;53.088;8.850;2023-05-10T02:09:33;15.10;99.90
67163;DHT22;54092;53.088;8.850;2023-05-10T02:12:01;15.10;99.90
67163;DHT22;54092;53.088;8.850;2023-05-10T02:14:30;15.10;99.90
67163;DHT22;54092;53.088;8.850;2023-05-10T02:16:57;15.10;99.90
67163;DHT22;54092;53.088;8.850;2023-05-10T02:19:23;15.10;99.90
67163;DHT22;54092;53.088;8.850;2023-05-10T02:21:50;15.10;99.90
67163;DHT22;54092;53.088;8.850;2023-05-10T02:24:17;15.10;99.90
67163;DHT22;54092;53.088;8.850;2023-05-10T02:26:45;15.10;99.90
67163;DHT22;54092;53.088;8.850;2023-05-10T02:29:12;15.10;99.90
67163;DHT22;54092;53.088;8.850;2023-05-10T02:31:39;15.10;99.90
67163;DHT22;54092;53.088;8.850;2023-05-10T02:34:06;15.00;99.90
67163;DHT22;54092;53.088;8.850;2023-05-10T02:36:33;15.00;99.90
67163;DHT22;54092;53.088;8.850;2023-05-10T02:39:00;15.00;99.90
67163;DHT22;54092;53.088;8.850;2023-05-10T02:41:27;15.00;99.90
67163;DHT22;54092;53.088;8.850;2023-05-10T02:43:56;14.90;99.90
67163;DHT22;54092;53.088;8.850;2023-05-10T02:46:24;14.90;99.90
67163;DHT22;54092;53.088;8.850;2023-05-10T02:48:50;14.90;99.90
67163;DHT22;54092;53.088;8.850;2023-05-10T02:51:16;14.80;99.90
67163;DHT22;54092;53.088;8.850;2023-05-10T02:53:44;14.80;99.90
67163;DHT22;54092;53.088;8.850;2023-05-10T02:56:15;14.80;99.90
67163;DHT22;54092;53.088;8.850;2023-05-10T02:58:43;14.80;99.90
67163;DHT22;54092;53.088;8.850;2023-05-10T03:01:09;14.80;99.90
67163;DHT22;54092;53.088;8.850;2023-05-10T03:03:34;14.80;99.90
67163;DHT22;54092;53.088;8.850;2023-05-10T03:06:00;14.70;99.90
67163;DHT22;54092;53.088;8.850;2023-05-10T03:08:26;14.60;99.90
67163;DHT22;54092;53.088;8.850;2023-05-10T03:16:59;14.60;99.90
67163;DHT22;54092;53.088;8.850;2023-05-10T03:19:48;14.50;99.90
67163;DHT22;54092;53.088;8.850;2023-05-10T03:22:29;14.50;99.90
67163;DHT22;54092;53.088;8.850;2023-05-10T03:24:56;14.50;99.90
67163;DHT22;54092;53.088;8.850;2023-05-10T03:27:24;14.40;99.90
67163;DHT22;54092;53.088;8.850;2023-05-10T03:29:51;14.40;99.90
67163;DHT22;54092;53.088;8.850;2023-05-10T03:32:17;14.40;99.90
67163;DHT22;54092;53.088;8.850;2023-05-10T03:34:43;14.40;99.90
67163;DHT22;54092;53.088;8.850;2023-05-10T03:37:09;14.40;99.90
67163;DHT22;54092;53.088;8.850;2023-05-10T03:39:35;14.40;99.90
67163;DHT22;54092;53.088;8.850;2023-05-10T03:42:00;14.40;99.90
67163;DHT22;54092;53.088;8.850;2023-05-10T03:44:26;14.40;99.90
67163;DHT22;54092;53.088;8.850;2023-05-10T03:46:51;14.40;99.90
67163;DHT22;54092;53.088;8.850;2023-05-10T03:49:17;14.40;99.90
67163;DHT22;54092;53.088;8.850;2023-05-10T03:51:42;14.30;99.90
67163;DHT22;54092;53.088;8.850;2023-05-10T03:54:08;14.30;99.90
67163;DHT22;54092;53.088;8.850;2023-05-10T03:56:33;14.20;99.90
67163;DHT22;54092;53.088;8.850;2023-05-10T03:58:59;14.10;99.90
67163;DHT22;54092;53.088;8.850;2023-05-10T04:01:24;14.00;99.90
67163;DHT22;54092;53.088;8.850;2023-05-10T04:03:50;13.80;99.90
67163;DHT22;54092;53.088;8.850;2023-05-10T04:06:15;13.70;99.90
67163;DHT22;54092;53.088;8.850;2023-05-10T04:08:41;13.60;99.90
67163;DHT22;54092;53.088;8.850;2023-05-10T04:11:07;13.50;99.90
67163;DHT22;54092;53.088;8.850;2023-05-10T04:13:33;13.40;99.90
67163;DHT22;54092;53.088;8.850;2023-05-10T04:15:59;13.30;99.90
67163;DHT22;54092;53.088;8.850;2023-05-10T04:18:24;13.30;99.90
67163;DHT22;54092;53.088;8.850;2023-05-10T04:20:50;13.30;99.90
67163;DHT22;54092;53.088;8.850;2023-05-10T04:23:15;13.30;99.90
67163;DHT22;54092;53.088;8.850;2023-05-10T04:25:42;13.20;99.90
67163;DHT22;54092;53.088;8.850;2023-05-10T04:28:07;13.20;99.90
67163;DHT22;54092;53.088;8.850;2023-05-10T04:30:33;13.20;99.90
67163;DHT22;54092;53.088;8.850;2023-05-10T04:32:58;13.20;99.90
67163;DHT22;54092;53.088;8.850;2023-05-10T04:35:24;13.20;99.90
67163;DHT22;54092;53.088;8.850;2023-05-10T04:37:49;13.20;99.90
67163;DHT22;54092;53.088;8.850;2023-05-10T04:40:15;13.20;99.90
67163;DHT22;54092;53.088;8.850;2023-05-10T04:42:41;13.20;99.90
67163;DHT22;54092;53.088;8.850;2023-05-10T04:45:07;13.20;99.90
67163;DHT22;54092;53.088;8.850;2023-05-10T04:47:32;13.10;99.90
67163;DHT22;54092;53.088;8.850;2023-05-10T04:49:58;13.00;99.90
67163;DHT22;54092;53.088;8.850;2023-05-10T04:52:24;12.90;99.90
67163;DHT22;54092;53.088;8.850;2023-05-10T04:54:49;12.90;99.90
67163;DHT22;54092;53.088;8.850;2023-05-10T04:57:16;12.70;99.90
67163;DHT22;54092;53.088;8.850;2023-05-10T04:59:41;12.50;99.90
67163;DHT22;54092;53.088;8.850;2023-05-10T05:02:07;12.50;99.90
67163;DHT22;54092;53.088;8.850;2023-05-10T05:04:33;12.40;99.90
67163;DHT22;54092;53.088;8.850;2023-05-10T05:06:58;12.40;99.90
67163;DHT22;54092;53.088;8.850;2023-05-10T05:09:24;12.30;99.90
67163;DHT22;54092;53.088;8.850;2023-05-10T05:11:49;12.40;99.90
67163;DHT22;54092;53.088;8.850;2023-05-10T05:14:15;12.40;99.90
67163;DHT22;54092;53.088;8.850;2023-05-10T05:16:41;12.40;99.90
67163;DHT22;54092;53.088;8.850;2023-05-10T05:19:06;12.30;99.90
67163;DHT22;54092;53.088;8.850;2023-05-10T05:21:32;12.40;99.90
67163;DHT22;54092;53.088;8.850;2023-05-10T05:23:57;12.40;99.90
67163;DHT22;54092;53.088;8.850;2023-05-10T05:26:23;12.30;99.90
67163;DHT22;54092;53.088;8.850;2023-05-10T05:28:48;12.30;99.90
67163;DHT22;54092;53.088;8.850;2023-05-10T05:31:17;12.30;99.90
67163;DHT22;54092;53.088;8.850;2023-05-10T05:33:43;12.30;99.90
67163;DHT22;54092;53.088;8.850;2023-05-10T05:36:08;12.30;99.90
67163;DHT22;54092;53.088;8.850;2023-05-10T05:38:34;12.30;99.90
67163;DHT22;54092;53.088;8.850;2023-05-10T05:41:00;12.10;99.90
67163;DHT22;54092;53.088;8.850;2023-05-10T05:43:25;12.10;99.90
67163;DHT22;54092;53.088;8.850;2023-05-10T05:45:52;12.10;99.90
67163;DHT22;54092;53.088;8.850;2023-05-10T05:48:19;12.10;99.90
67163;DHT22;54092;53.088;8.850;2023-05-10T05:50:44;12.10;99.90
67163;DHT22;54092;53.088;8.850;2023-05-10T05:53:11;12.00;99.90
67163;DHT22;54092;53.088;8.850;2023-05-10T05:55:36;11.90;99.90
67163;DHT22;54092;53.088;8.850;2023-05-10T05:58:02;11.90;99.90
67163;DHT22;54092;53.088;8.850;2023-05-10T06:00:28;11.90;99.90
67163;DHT22;54092;53.088;8.850;2023-05-10T06:02:57;11.80;99.90
67163;DHT22;54092;53.088;8.850;2023-05-10T06:05:22;11.80;99.90
67163;DHT22;54092;53.088;8.850;2023-05-10T06:07:48;11.80;99.90
67163;DHT22;54092;53.088;8.850;2023-05-10T06:10:13;11.70;99.90
67163;DHT22;54092;53.088;8.850;2023-05-10T06:12:39;11.70;99.90
67163;DHT22;54092;53.088;8.850;2023-05-10T06:15:04;11.70;99.90
67163;DHT22;54092;53.088;8.850;2023-05-10T06:17:30;11.60;99.90
67163;DHT22;54092;53.088;8.850;2023-05-10T06:19:56;11.50;99.90
67163;DHT22;54092;53.088;8.850;2023-05-10T06:22:21;11.50;99.90
67163;DHT22;54092;53.088;8.850;2023-05-10T06:24:48;11.40;99.90
67163;DHT22;54092;53.088;8.850;2023-05-10T06:27:13;11.50;99.90
67163;DHT22;54092;53.088;8.850;2023-05-10T06:29:39;11.40;99.90
67163;DHT22;54092;53.088;8.850;2023-05-10T06:32:05;11.40;99.90
67163;DHT22;54092;53.088;8.850;2023-05-10T06:34:30;11.40;99.90
67163;DHT22;54092;53.088;8.850;2023-05-10T06:36:56;11.50;99.90
67163;DHT22;54092;53.088;8.850;2023-05-10T06:39:22;11.50;99.90
67163;DHT22;54092;53.088;8.850;2023-05-10T06:41:47;11.50;99.90
67163;DHT22;54092;53.088;8.850;2023-05-10T06:44:13;11.50;99.90
67163;DHT22;54092;53.088;8.850;2023-05-10T06:46:41;11.50;99.90
67163;DHT22;54092;53.088;8.850;2023-05-10T06:49:07;11.50;99.90
67163;DHT22;54092;53.088;8.850;2023-05-10T06:51:33;11.50;99.90
67163;DHT22;54092;53.088;8.850;2023-05-10T06:53:58;11.70;99.90
67163;DHT22;54092;53.088;8.850;2023-05-10T06:56:24;11.80;99.90
67163;DHT22;54092;53.088;8.850;2023-05-10T06:58:50;11.80;99.90
67163;DHT22;54092;53.088;8.850;2023-05-10T07:01:15;11.80;99.90
67163;DHT22;54092;53.088;8.850;2023-05-10T07:03:41;11.80;99.90
67163;DHT22;54092;53.088;8.850;2023-05-10T07:06:06;11.90;99.90
67163;DHT22;54092;53.088;8.850;2023-05-10T07:08:33;12.00;99.90
67163;DHT22;54092;53.088;8.850;2023-05-10T07:11:03;12.00;99.90
67163;DHT22;54092;53.088;8.850;2023-05-10T07:13:30;12.00;99.90
67163;DHT22;54092;53.088;8.850;2023-05-10T07:15:56;12.00;99.90
67163;DHT22;54092;53.088;8.850;2023-05-10T07:18:22;12.10;99.90
67163;DHT22;54092;53.088;8.850;2023-05-10T07:20:47;12.20;99.90
67163;DHT22;54092;53.088;8.850;2023-05-10T07:23:13;12.20;99.90
67163;DHT22;54092;53.088;8.850;2023-05-10T07:25:41;12.20;99.90
67163;DHT22;54092;53.088;8.850;2023-05-10T07:28:08;12.30;99.90
67163;DHT22;54092;53.088;8.850;2023-05-10T07:30:33;12.40;99.90
67163;DHT22;54092;53.088;8.850;2023-05-10T07:32:59;12.50;99.90
67163;DHT22;54092;53.088;8.850;2023-05-10T07:35:24;12.60;99.90
67163;DHT22;54092;53.088;8.850;2023-05-10T07:37:50;12.60;99.90
67163;DHT22;54092;53.088;8.850;2023-05-10T07:40:15;12.70;99.90
67163;DHT22;54092;53.088;8.850;2023-05-10T07:42:41;12.70;99.90
67163;DHT22;54092;53.088;8.850;2023-05-10T07:45:07;12.90;99.90
67163;DHT22;54092;53.088;8.850;2023-05-10T07:47:32;13.00;99.90
67163;DHT22;54092;53.088;8.850;2023-05-10T07:49:58;13.00;99.90
67163;DHT22;54092;53.088;8.850;2023-05-10T07:52:23;13.10;99.90
67163;DHT22;54092;53.088;8.850;2023-05-10T07:54:49;13.20;99.90
67163;DHT22;54092;53.088;8.850;2023-05-10T07:57:15;13.20;99.90
67163;DHT22;54092;53.088;8.850;2023-05-10T07:59:42;13.10;99.90
67163;DHT22;54092;53.088;8.850;2023-05-10T08:02:08;13.10;99.90
67163;DHT22;54092;53.088;8.850;2023-05-10T08:04:35;13.10;99.90
67163;DHT22;54092;53.088;8.850;2023-05-10T08:07:00;13.20;99.90
67163;DHT22;54092;53.088;8.850;2023-05-10T08:09:26;13.20;99.90
67163;DHT22;54092;53.088;8.850;2023-05-10T08:11:51;13.30;99.90
67163;DHT22;54092;53.088;8.850;2023-05-10T08:14:17;13.30;99.90
67163;DHT22;54092;53.088;8.850;2023-05-10T08:16:43;13.40;99.90
67163;DHT22;54092;53.088;8.850;2023-05-10T08:19:08;13.50;99.90
67163;DHT22;54092;53.088;8.850;2023-05-10T08:21:34;13.50;99.90
67163;DHT22;54092;53.088;8.850;2023-05-10T08:23:59;13.60;99.90
67163;DHT22;54092;53.088;8.850;2023-05-10T08:26:25;13.60;99.90
67163;DHT22;54092;53.088;8.850;2023-05-10T08:28:51;13.50;99.90
67163;DHT22;54092;53.088;8.850;2023-05-10T08:31:16;13.50;99.90
67163;DHT22;54092;53.088;8.850;2023-05-10T08:33:43;13.60;99.90
67163;DHT22;54092;53.088;8.850;2023-05-10T08:36:08;13.70;99.90
67163;DHT22;54092;53.088;8.850;2023-05-10T08:38:34;13.90;99.90
67163;DHT22;54092;53.088;8.850;2023-05-10T08:41:01;14.00;99.90
67163;DHT22;54092;53.088;8.850;2023-05-10T08:43:28;14.10;99.90
67163;DHT22;54092;53.088;8.850;2023-05-10T08:45:55;14.30;99.90
67163;DHT22;54092;53.088;8.850;2023-05-10T08:48:23;14.30;99.90
67163;DHT22;54092;53.088;8.850;2023-05-10T08:50:51;14.40;99.90
67163;DHT22;54092;53.088;8.850;2023-05-10T08:53:19;14.40;99.90
67163;DHT22;54092;53.088;8.850;2023-05-10T08:55:45;14.40;99.90
67163;DHT22;54092;53.088;8.850;2023-05-10T08:58:11;14.40;99.90
67163;DHT22;54092;53.088;8.850;2023-05-10T09:00:36;14.40;99.90
67163;DHT22;54092;53.088;8.850;2023-05-10T09:03:04;14.40;99.90
67163;DHT22;54092;53.088;8.850;2023-05-10T09:05:30;14.40;99.90
67163;DHT22;54092;53.088;8.850;2023-05-10T09:07:55;14.50;99.90
67163;DHT22;54092;53.088;8.850;2023-05-10T09:10:21;14.60;99.90
67163;DHT22;54092;53.088;8.850;2023-05-10T09:12:48;14.90;99.90
67163;DHT22;54092;53.088;8.850;2023-05-10T09:15:15;15.30;99.90
67163;DHT22;54092;53.088;8.850;2023-05-10T09:17:42;15.70;99.90
67163;DHT22;54092;53.088;8.850;2023-05-10T09:20:09;15.70;99.90
67163;DHT22;54092;53.088;8.850;2023-05-10T09:22:35;15.50;99.90
67163;DHT22;54092;53.088;8.850;2023-05-10T09:25:15;15.40;99.90
67163;DHT22;54092;53.088;8.850;2023-05-10T09:27:45;15.50;99.90
67163;DHT22;54092;53.088;8.850;2023-05-10T09:30:15;16.10;99.90
67163;DHT22;54092;53.088;8.850;2023-05-10T09:32:45;16.50;99.90
67163;DHT22;54092;53.088;8.850;2023-05-10T09:35:12;16.30;99.90
67163;DHT22;54092;53.088;8.850;2023-05-10T09:37:43;16.00;99.90
67163;DHT22;54092;53.088;8.850;2023-05-10T09:40:15;15.60;99.90
67163;DHT22;54092;53.088;8.850;2023-05-10T09:42:50;15.20;99.90
67163;DHT22;54092;53.088;8.850;2023-05-10T09:45:16;14.90;99.90
67163;DHT22;54092;53.088;8.850;2023-05-10T09:47:41;14.90;99.90
67163;DHT22;54092;53.088;8.850;2023-05-10T09:50:07;15.00;99.90
67163;DHT22;54092;53.088;8.850;2023-05-10T09:52:50;15.20;99.90
67163;DHT22;54092;53.088;8.850;2023-05-10T09:55:17;15.20;99.90
67163;DHT22;54092;53.088;8.850;2023-05-10T09:57:43;15.10;99.90
67163;DHT22;54092;53.088;8.850;2023-05-10T10:00:09;15.20;99.90
67163;DHT22;54092;53.088;8.850;2023-05-10T10:02:35;15.30;99.90
67163;DHT22;54092;53.088;8.850;2023-05-10T10:05:01;15.40;99.90
67163;DHT22;54092;53.088;8.850;2023-05-10T10:07:28;15.50;99.90
67163;DHT22;54092;53.088;8.850;2023-05-10T10:09:54;15.70;99.90
67163;DHT22;54092;53.088;8.850;2023-05-10T10:12:20;16.10;99.90
67163;DHT22;54092;53.088;8.850;2023-05-10T10:14:48;16.40;99.90
67163;DHT22;54092;53.088;8.850;2023-05-10T10:17:15;16.40;99.90
67163;DHT22;54092;53.088;8.850;2023-05-10T10:19:41;16.40;99.90
67163;DHT22;54092;53.088;8.850;2023-05-10T10:22:07;16.20;99.90
67163;DHT22;54092;53.088;8.850;2023-05-10T10:24:33;15.90;99.90
67163;DHT22;54092;53.088;8.850;2023-05-10T10:33:06;14.50;99.90
67163;DHT22;54092;53.088;8.850;2023-05-10T10:35:36;14.30;99.90
67163;DHT22;54092;53.088;8.850;2023-05-10T10:38:01;14.30;99.90
67163;DHT22;54092;53.088;8.850;2023-05-10T10:40:29;14.40;99.90
67163;DHT22;54092;53.088;8.850;2023-05-10T10:42:56;14.50;99.90
67163;DHT22;54092;53.088;8.850;2023-05-10T10:45:23;14.80;99.90
67163;DHT22;54092;53.088;8.850;2023-05-10T10:48:21;15.30;99.90
67163;DHT22;54092;53.088;8.850;2023-05-10T10:50:45;16.10;99.90
67163;DHT22;54092;53.088;8.850;2023-05-10T10:53:11;17.00;99.90
67163;DHT22;54092;53.088;8.850;2023-05-10T10:55:46;17.70;99.90
67163;DHT22;54092;53.088;8.850;2023-05-10T10:58:29;17.30;99.90
67163;DHT22;54092;53.088;8.850;2023-05-10T11:01:18;16.70;99.90
67163;DHT22;54092;53.088;8.850;2023-05-10T11:06:35;17.80;99.90
67163;DHT22;54092;53.088;8.850;2023-05-10T11:09:08;18.50;99.90
67163;DHT22;54092;53.088;8.850;2023-05-10T11:11:35;18.40;99.90
67163;DHT22;54092;53.088;8.850;2023-05-10T11:14:06;17.60;99.90
67163;DHT22;54092;53.088;8.850;2023-05-10T11:16:44;17.10;99.90
67163;DHT22;54092;53.088;8.850;2023-05-10T11:19:12;16.90;99.90
67163;DHT22;54092;53.088;8.850;2023-05-10T11:21:49;16.70;99.90
67163;DHT22;54092;53.088;8.850;2023-05-10T11:24:17;16.50;99.90
67163;DHT22;54092;53.088;8.850;2023-05-10T11:26:43;16.50;99.90
67163;DHT22;54092;53.088;8.850;2023-05-10T11:29:09;16.50;99.90
67163;DHT22;54092;53.088;8.850;2023-05-10T11:31:34;16.60;99.90
67163;DHT22;54092;53.088;8.850;2023-05-10T11:34:00;16.50;99.90
67163;DHT22;54092;53.088;8.850;2023-05-10T11:36:34;16.60;99.90
67163;DHT22;54092;53.088;8.850;2023-05-10T11:39:00;16.50;99.90
67163;DHT22;54092;53.088;8.850;2023-05-10T11:41:27;16.80;99.90
67163;DHT22;54092;53.088;8.850;2023-05-10T11:43:53;17.30;99.90
67163;DHT22;54092;53.088;8.850;2023-05-10T11:46:21;17.70;99.90
67163;DHT22;54092;53.088;8.850;2023-05-10T11:48:51;18.30;99.90
67163;DHT22;54092;53.088;8.850;2023-05-10T11:51:21;18.10;99.90
67163;DHT22;54092;53.088;8.850;2023-05-10T11:53:46;17.80;99.90
67163;DHT22;54092;53.088;8.850;2023-05-10T11:56:12;17.50;99.90
67163;DHT22;54092;53.088;8.850;2023-05-10T11:58:38;17.20;99.90
67163;DHT22;54092;53.088;8.850;2023-05-10T12:01:05;17.00;99.90
67163;DHT22;54092;53.088;8.850;2023-05-10T12:03:32;17.00;99.90
67163;DHT22;54092;53.088;8.850;2023-05-10T12:05:58;16.70;99.90
67163;DHT22;54092;53.088;8.850;2023-05-10T12:08:27;16.10;99.90
67163;DHT22;54092;53.088;8.850;2023-05-10T12:11:03;15.60;99.90
67163;DHT22;54092;53.088;8.850;2023-05-10T12:13:28;15.20;99.90
67163;DHT22;54092;53.088;8.850;2023-05-10T12:15:57;15.00;99.90
67163;DHT22;54092;53.088;8.850;2023-05-10T12:18:23;14.70;99.90
67163;DHT22;54092;53.088;8.850;2023-05-10T12:20:52;14.60;99.90
67163;DHT22;54092;53.088;8.850;2023-05-10T12:23:20;14.80;99.90
67163;DHT22;54092;53.088;8.850;2023-05-10T12:25:45;15.10;99.90
67163;DHT22;54092;53.088;8.850;2023-05-10T12:28:11;15.60;99.90
67163;DHT22;54092;53.088;8.850;2023-05-10T12:30:37;15.80;99.90
67163;DHT22;54092;53.088;8.850;2023-05-10T12:33:11;15.70;99.90
67163;DHT22;54092;53.088;8.850;2023-05-10T12:35:51;15.60;99.90
67163;DHT22;54092;53.088;8.850;2023-05-10T12:38:27;15.40;99.90
67163;DHT22;54092;53.088;8.850;2023-05-10T12:40:56;15.30;99.90
67163;DHT22;54092;53.088;8.850;2023-05-10T12:43:21;15.30;99.90
67163;DHT22;54092;53.088;8.850;2023-05-10T12:45:47;15.50;99.90
67163;DHT22;54092;53.088;8.850;2023-05-10T12:48:14;15.80;99.90
67163;DHT22;54092;53.088;8.850;2023-05-10T12:50:40;15.70;99.90
67163;DHT22;54092;53.088;8.850;2023-05-10T12:53:05;15.70;99.90
67163;DHT22;54092;53.088;8.850;2023-05-10T12:55:31;15.50;99.90
67163;DHT22;54092;53.088;8.850;2023-05-10T12:57:56;15.30;99.90
67163;DHT22;54092;53.088;8.850;2023-05-10T13:00:22;15.10;99.90
67163;DHT22;54092;53.088;8.850;2023-05-10T13:02:47;15.10;99.90
67163;DHT22;54092;53.088;8.850;2023-05-10T13:05:13;15.10;99.90
67163;DHT22;54092;53.088;8.850;2023-05-10T13:07:38;15.30;99.90
67163;DHT22;54092;53.088;8.850;2023-05-10T13:10:05;15.70;99.90
67163;DHT22;54092;53.088;8.850;2023-05-10T13:12:31;16.00;99.90
67163;DHT22;54092;53.088;8.850;2023-05-10T13:14:57;16.30;99.90
67163;DHT22;54092;53.088;8.850;2023-05-10T13:17:25;16.40;99.90
67163;DHT22;54092;53.088;8.850;2023-05-10T13:19:50;16.20;99.90
67163;DHT22;54092;53.088;8.850;2023-05-10T13:22:16;16.00;99.90
67163;DHT22;54092;53.088;8.850;2023-05-10T13:24:41;15.90;99.90
67163;DHT22;54092;53.088;8.850;2023-05-10T13:27:06;15.70;99.90
67163;DHT22;54092;53.088;8.850;2023-05-10T13:29:32;15.80;99.90
67163;DHT22;54092;53.088;8.850;2023-05-10T13:31:59;15.90;99.90
67163;DHT22;54092;53.088;8.850;2023-05-10T13:34:24;16.10;99.90
67163;DHT22;54092;53.088;8.850;2023-05-10T13:36:50;16.50;99.90
67163;DHT22;54092;53.088;8.850;2023-05-10T13:39:16;16.70;99.90
67163;DHT22;54092;53.088;8.850;2023-05-10T13:41:42;16.70;99.90
67163;DHT22;54092;53.088;8.850;2023-05-10T13:44:07;16.70;99.90
67163;DHT22;54092;53.088;8.850;2023-05-10T13:46:33;16.50;99.90
67163;DHT22;54092;53.088;8.850;2023-05-10T13:48:58;16.40;99.90
67163;DHT22;54092;53.088;8.850;2023-05-10T13:51:24;16.30;99.90
67163;DHT22;54092;53.088;8.850;2023-05-10T13:53:49;16.10;99.90
67163;DHT22;54092;53.088;8.850;2023-05-10T13:56:15;16.00;99.90
67163;DHT22;54092;53.088;8.850;2023-05-10T13:58:41;15.90;99.90
67163;DHT22;54092;53.088;8.850;2023-05-10T14:01:06;15.90;99.90
67163;DHT22;54092;53.088;8.850;2023-05-10T14:03:32;16.00;99.90
67163;DHT22;54092;53.088;8.850;2023-05-10T14:05:58;16.10;99.90
67163;DHT22;54092;53.088;8.850;2023-05-10T14:08:23;16.30;99.90
67163;DHT22;54092;53.088;8.850;2023-05-10T14:10:49;16.40;99.90
67163;DHT22;54092;53.088;8.850;2023-05-10T14:13:15;16.50;99.90
67163;DHT22;54092;53.088;8.850;2023-05-10T14:15:41;16.40;99.90
67163;DHT22;54092;53.088;8.850;2023-05-10T14:18:07;16.50;99.90
67163;DHT22;54092;53.088;8.850;2023-05-10T14:20:32;16.50;99.90
67163;DHT22;54092;53.088;8.850;2023-05-10T14:22:59;16.50;99.90
67163;DHT22;54092;53.088;8.850;2023-05-10T14:25:25;16.50;99.90
67163;DHT22;54092;53.088;8.850;2023-05-10T14:27:51;16.60;99.90
67163;DHT22;54092;53.088;8.850;2023-05-10T14:30:16;16.60;99.90
67163;DHT22;54092;53.088;8.850;2023-05-10T14:32:42;16.80;99.90
67163;DHT22;54092;53.088;8.850;2023-05-10T14:35:07;17.20;99.90
67163;DHT22;54092;53.088;8.850;2023-05-10T14:37:34;17.50;99.90
67163;DHT22;54092;53.088;8.850;2023-05-10T14:39:59;17.70;99.90
67163;DHT22;54092;53.088;8.850;2023-05-10T14:42:25;17.90;99.90
67163;DHT22;54092;53.088;8.850;2023-05-10T14:44:50;17.80;99.90
67163;DHT22;54092;53.088;8.850;2023-05-10T14:47:16;17.90;99.90
67163;DHT22;54092;53.088;8.850;2023-05-10T14:49:42;18.10;99.90
67163;DHT22;54092;53.088;8.850;2023-05-10T14:52:07;18.20;99.90
67163;DHT22;54092;53.088;8.850;2023-05-10T14:54:33;18.10;99.90
67163;DHT22;54092;53.088;8.850;2023-05-10T14:56:59;17.90;99.90
67163;DHT22;54092;53.088;8.850;2023-05-10T14:59:25;17.90;99.90
67163;DHT22;54092;53.088;8.850;2023-05-10T15:01:51;17.90;99.90
67163;DHT22;54092;53.088;8.850;2023-05-10T15:04:16;18.00;99.90
67163;DHT22;54092;53.088;8.850;2023-05-10T15:06:42;17.90;99.90
67163;DHT22;54092;53.088;8.850;2023-05-10T15:09:07;17.70;99.90
67163;DHT22;54092;53.088;8.850;2023-05-10T15:11:33;17.70;99.90
67163;DHT22;54092;53.088;8.850;2023-05-10T15:13:58;17.70;99.90
67163;DHT22;54092;53.088;8.850;2023-05-10T15:16:24;17.60;99.90
67163;DHT22;54092;53.088;8.850;2023-05-10T15:18:50;17.40;99.90
67163;DHT22;54092;53.088;8.850;2023-05-10T15:21:15;17.20;99.90
67163;DHT22;54092;53.088;8.850;2023-05-10T15:23:41;17.10;99.90
67163;DHT22;54092;53.088;8.850;2023-05-10T15:26:06;16.90;99.90
67163;DHT22;54092;53.088;8.850;2023-05-10T15:28:33;16.80;99.90
67163;DHT22;54092;53.088;8.850;2023-05-10T15:30:58;16.80;99.90
67163;DHT22;54092;53.088;8.850;2023-05-10T15:33:23;16.70;99.90
67163;DHT22;54092;53.088;8.850;2023-05-10T15:35:50;16.60;99.90
67163;DHT22;54092;53.088;8.850;2023-05-10T15:38:15;16.60;99.90
67163;DHT22;54092;53.088;8.850;2023-05-10T15:40:41;16.70;99.90
67163;DHT22;54092;53.088;8.850;2023-05-10T15:43:06;16.70;99.90
67163;DHT22;54092;53.088;8.850;2023-05-10T15:45:32;16.60;99.90
67163;DHT22;54092;53.088;8.850;2023-05-10T15:47:58;16.60;99.90
67163;DHT22;54092;53.088;8.850;2023-05-10T15:50:27;16.70;99.90
67163;DHT22;54092;53.088;8.850;2023-05-10T15:52:52;16.80;99.90